East Thetford, Vermont
Current Conditions -  °F | °C
As of 1:53 PM on Friday 24 Oct 2014 (Local Time) from KLEB Reporting Station
Overcast Overcast  
Wind Chill: 10°   Ceiling: 1900
Heat Index: 10°   Visibility: 10mi
Dew Point:   Wind: 9mph
Humidity: 68%   Direction: 350°N
Pressure: 29.74"   Gusts: 17mph
Location:  43.81°N, 72.19°W
Report Text: KLEB 241753Z 35008G15KT 10SM OVC019 10/04 A2974 RMK AO2 SLP070 T01000044 10100 20078 58012
Loading
Personal Weather Stations






























Interactive Weather Map
Tropical Storm Tracking
New forecast layout! Learn more

10-Day Weather Forecast

Advertisements
Track Severe Weather on mobile